Norwell, Massachusetts
Current Conditions -  °F | °C
As of 3:50 AM on Thursday 23 Oct 2014 (Local Time) from KGHG Reporting Station
Heavy Rain Heavy Rain  
Wind Chill: 57°   Ceiling: 300
Heat Index: 57°   Visibility: 1.2mi
Dew Point: 55°   Wind: 15mph
Humidity: 94%   Direction: 50°NE
Pressure: 29.66"   Gusts: 28mph
Location:  42.16°N, 70.79°W
Report Text: KGHG 230750Z AUTO 05013G24KT 1 1/4SM +RA BKN003 OVC008 14/13 A2966 RMK AO2 LTG DSNT E AND SE
Loading
Personal Weather Stations






























Interactive Weather Map
Tropical Storm Tracking
New forecast layout! Learn more

10-Day Weather Forecast

Advertisements
Track Severe Weather on mobile